sensor_id;sensor_type;location;lat;lon;timestamp;temperature;humidity
31783;DHT22;18351;47.560;9.708;2023-05-07T00:00:21;15.70;99.90
31783;DHT22;18351;47.560;9.708;2023-05-07T00:02:46;15.70;99.90
31783;DHT22;18351;47.560;9.708;2023-05-07T00:05:12;15.70;99.90
31783;DHT22;18351;47.560;9.708;2023-05-07T00:07:38;15.60;99.90
31783;DHT22;18351;47.560;9.708;2023-05-07T00:10:04;15.60;99.90
31783;DHT22;18351;47.560;9.708;2023-05-07T00:12:31;15.70;99.90
31783;DHT22;18351;47.560;9.708;2023-05-07T00:14:59;15.70;99.90
31783;DHT22;18351;47.560;9.708;2023-05-07T00:17:25;15.70;99.90
31783;DHT22;18351;47.560;9.708;2023-05-07T00:19:50;15.70;99.90
31783;DHT22;18351;47.560;9.708;2023-05-07T00:22:16;15.80;99.90
31783;DHT22;18351;47.560;9.708;2023-05-07T00:24:41;15.70;99.90
31783;DHT22;18351;47.560;9.708;2023-05-07T00:27:07;15.70;99.90
31783;DHT22;18351;47.560;9.708;2023-05-07T00:29:33;15.70;99.90
31783;DHT22;18351;47.560;9.708;2023-05-07T00:31:58;15.70;99.90
31783;DHT22;18351;47.560;9.708;2023-05-07T00:34:24;15.70;99.90
31783;DHT22;18351;47.560;9.708;2023-05-07T00:36:49;15.70;99.90
31783;DHT22;18351;47.560;9.708;2023-05-07T00:39:15;15.70;99.90
31783;DHT22;18351;47.560;9.708;2023-05-07T00:41:41;15.70;99.90
31783;DHT22;18351;47.560;9.708;2023-05-07T00:44:06;15.70;99.90
31783;DHT22;18351;47.560;9.708;2023-05-07T00:46:32;15.70;99.90
31783;DHT22;18351;47.560;9.708;2023-05-07T00:48:58;15.70;99.90
31783;DHT22;18351;47.560;9.708;2023-05-07T00:51:25;15.60;99.90
31783;DHT22;18351;47.560;9.708;2023-05-07T00:53:52;15.60;99.90
31783;DHT22;18351;47.560;9.708;2023-05-07T00:56:20;15.60;99.90
31783;DHT22;18351;47.560;9.708;2023-05-07T00:58:46;15.60;99.90
31783;DHT22;18351;47.560;9.708;2023-05-07T01:01:12;15.50;99.90
31783;DHT22;18351;47.560;9.708;2023-05-07T01:03:38;15.60;99.90
31783;DHT22;18351;47.560;9.708;2023-05-07T01:06:04;15.50;99.90
31783;DHT22;18351;47.560;9.708;2023-05-07T01:08:32;15.50;99.90
31783;DHT22;18351;47.560;9.708;2023-05-07T01:10:57;15.40;99.90
31783;DHT22;18351;47.560;9.708;2023-05-07T01:13:24;15.40;99.90
31783;DHT22;18351;47.560;9.708;2023-05-07T01:15:50;15.30;99.90
31783;DHT22;18351;47.560;9.708;2023-05-07T01:18:16;15.30;99.90
31783;DHT22;18351;47.560;9.708;2023-05-07T01:20:42;15.30;99.90
31783;DHT22;18351;47.560;9.708;2023-05-07T01:23:07;15.20;99.90
31783;DHT22;18351;47.560;9.708;2023-05-07T01:25:34;15.20;99.90
31783;DHT22;18351;47.560;9.708;2023-05-07T01:28:00;15.20;99.90
31783;DHT22;18351;47.560;9.708;2023-05-07T01:30:27;15.20;99.90
31783;DHT22;18351;47.560;9.708;2023-05-07T01:32:59;15.10;99.90
31783;DHT22;18351;47.560;9.708;2023-05-07T01:35:34;15.10;99.90
31783;DHT22;18351;47.560;9.708;2023-05-07T01:38:02;15.00;99.90
31783;DHT22;18351;47.560;9.708;2023-05-07T01:40:30;15.00;99.90
31783;DHT22;18351;47.560;9.708;2023-05-07T01:42:55;15.00;99.90
31783;DHT22;18351;47.560;9.708;2023-05-07T01:45:21;15.00;99.90
31783;DHT22;18351;47.560;9.708;2023-05-07T01:47:47;15.00;99.90
31783;DHT22;18351;47.560;9.708;2023-05-07T01:50:16;15.00;99.90
31783;DHT22;18351;47.560;9.708;2023-05-07T01:52:43;15.00;99.90
31783;DHT22;18351;47.560;9.708;2023-05-07T01:55:09;15.00;99.90
31783;DHT22;18351;47.560;9.708;2023-05-07T01:57:35;14.90;99.90
31783;DHT22;18351;47.560;9.708;2023-05-07T02:00:01;14.90;99.90
31783;DHT22;18351;47.560;9.708;2023-05-07T02:02:31;14.90;99.90
31783;DHT22;18351;47.560;9.708;2023-05-07T02:04:57;14.90;99.90
31783;DHT22;18351;47.560;9.708;2023-05-07T02:07:22;14.90;99.90
31783;DHT22;18351;47.560;9.708;2023-05-07T02:09:48;14.90;99.90
31783;DHT22;18351;47.560;9.708;2023-05-07T02:12:13;14.80;99.90
31783;DHT22;18351;47.560;9.708;2023-05-07T02:14:39;14.80;99.90
31783;DHT22;18351;47.560;9.708;2023-05-07T02:17:04;14.80;99.90
31783;DHT22;18351;47.560;9.708;2023-05-07T02:19:30;14.80;99.90
31783;DHT22;18351;47.560;9.708;2023-05-07T02:21:55;14.80;99.90
31783;DHT22;18351;47.560;9.708;2023-05-07T02:24:21;14.70;99.90
31783;DHT22;18351;47.560;9.708;2023-05-07T02:26:46;14.70;99.90
31783;DHT22;18351;47.560;9.708;2023-05-07T02:29:12;14.70;99.90
31783;DHT22;18351;47.560;9.708;2023-05-07T02:31:38;14.60;99.90
31783;DHT22;18351;47.560;9.708;2023-05-07T02:34:03;14.60;99.90
31783;DHT22;18351;47.560;9.708;2023-05-07T02:36:29;14.60;99.90
31783;DHT22;18351;47.560;9.708;2023-05-07T02:38:54;14.60;99.90
31783;DHT22;18351;47.560;9.708;2023-05-07T02:41:20;14.60;99.90
31783;DHT22;18351;47.560;9.708;2023-05-07T02:43:46;14.60;99.90
31783;DHT22;18351;47.560;9.708;2023-05-07T02:46:11;14.60;99.90
31783;DHT22;18351;47.560;9.708;2023-05-07T02:48:37;14.70;99.90
31783;DHT22;18351;47.560;9.708;2023-05-07T02:51:03;14.70;99.90
31783;DHT22;18351;47.560;9.708;2023-05-07T02:53:28;14.60;99.90
31783;DHT22;18351;47.560;9.708;2023-05-07T02:55:58;14.60;99.90
31783;DHT22;18351;47.560;9.708;2023-05-07T02:58:24;14.60;99.90
31783;DHT22;18351;47.560;9.708;2023-05-07T03:00:50;14.50;99.90
31783;DHT22;18351;47.560;9.708;2023-05-07T03:03:16;14.40;99.90
31783;DHT22;18351;47.560;9.708;2023-05-07T03:05:41;14.40;99.90
31783;DHT22;18351;47.560;9.708;2023-05-07T03:08:07;14.30;99.90
31783;DHT22;18351;47.560;9.708;2023-05-07T03:10:33;14.30;99.90
31783;DHT22;18351;47.560;9.708;2023-05-07T03:12:59;14.30;99.90
31783;DHT22;18351;47.560;9.708;2023-05-07T03:15:25;14.20;99.90
31783;DHT22;18351;47.560;9.708;2023-05-07T03:17:50;14.10;99.90
31783;DHT22;18351;47.560;9.708;2023-05-07T03:20:16;14.10;99.90
31783;DHT22;18351;47.560;9.708;2023-05-07T03:22:41;14.00;99.90
31783;DHT22;18351;47.560;9.708;2023-05-07T03:25:08;14.00;99.90
31783;DHT22;18351;47.560;9.708;2023-05-07T03:27:34;14.00;99.90
31783;DHT22;18351;47.560;9.708;2023-05-07T03:30:00;13.90;99.90
31783;DHT22;18351;47.560;9.708;2023-05-07T03:32:25;13.90;99.90
31783;DHT22;18351;47.560;9.708;2023-05-07T03:34:51;13.80;99.90
31783;DHT22;18351;47.560;9.708;2023-05-07T03:37:17;13.80;99.90
31783;DHT22;18351;47.560;9.708;2023-05-07T03:39:42;13.80;99.90
31783;DHT22;18351;47.560;9.708;2023-05-07T03:42:08;13.70;99.90
31783;DHT22;18351;47.560;9.708;2023-05-07T03:44:33;13.60;99.90
31783;DHT22;18351;47.560;9.708;2023-05-07T03:46:59;13.60;99.90
31783;DHT22;18351;47.560;9.708;2023-05-07T03:49:24;13.60;99.90
31783;DHT22;18351;47.560;9.708;2023-05-07T03:51:50;13.60;99.90
31783;DHT22;18351;47.560;9.708;2023-05-07T03:54:15;13.50;99.90
31783;DHT22;18351;47.560;9.708;2023-05-07T03:56:41;13.50;99.90
31783;DHT22;18351;47.560;9.708;2023-05-07T03:59:07;13.40;99.90
31783;DHT22;18351;47.560;9.708;2023-05-07T04:01:32;13.30;99.90
31783;DHT22;18351;47.560;9.708;2023-05-07T04:03:58;13.30;99.90
31783;DHT22;18351;47.560;9.708;2023-05-07T04:06:23;13.40;99.90
31783;DHT22;18351;47.560;9.708;2023-05-07T04:08:49;13.40;99.90
31783;DHT22;18351;47.560;9.708;2023-05-07T04:11:15;13.40;99.90
31783;DHT22;18351;47.560;9.708;2023-05-07T04:13:40;13.40;99.90
31783;DHT22;18351;47.560;9.708;2023-05-07T04:16:06;13.40;99.90
31783;DHT22;18351;47.560;9.708;2023-05-07T04:18:32;13.40;99.90
31783;DHT22;18351;47.560;9.708;2023-05-07T04:20:57;13.40;99.90
31783;DHT22;18351;47.560;9.708;2023-05-07T04:23:23;13.40;99.90
31783;DHT22;18351;47.560;9.708;2023-05-07T04:25:48;13.40;99.90
31783;DHT22;18351;47.560;9.708;2023-05-07T04:28:14;13.40;99.90
31783;DHT22;18351;47.560;9.708;2023-05-07T04:30:39;13.30;99.90
31783;DHT22;18351;47.560;9.708;2023-05-07T04:33:06;13.30;99.90
31783;DHT22;18351;47.560;9.708;2023-05-07T04:35:32;13.30;99.90
31783;DHT22;18351;47.560;9.708;2023-05-07T04:37:58;13.20;99.90
31783;DHT22;18351;47.560;9.708;2023-05-07T04:40:23;13.20;99.90
31783;DHT22;18351;47.560;9.708;2023-05-07T04:42:49;13.30;99.90
31783;DHT22;18351;47.560;9.708;2023-05-07T04:45:15;13.30;99.90
31783;DHT22;18351;47.560;9.708;2023-05-07T04:47:40;13.40;99.90
31783;DHT22;18351;47.560;9.708;2023-05-07T04:50:07;13.50;99.90
31783;DHT22;18351;47.560;9.708;2023-05-07T04:52:33;13.60;99.90
31783;DHT22;18351;47.560;9.708;2023-05-07T04:55:00;13.80;99.90
31783;DHT22;18351;47.560;9.708;2023-05-07T04:57:26;14.00;99.90
31783;DHT22;18351;47.560;9.708;2023-05-07T04:59:53;14.10;99.90
31783;DHT22;18351;47.560;9.708;2023-05-07T05:02:18;14.20;99.90
31783;DHT22;18351;47.560;9.708;2023-05-07T05:04:44;14.30;99.90
31783;DHT22;18351;47.560;9.708;2023-05-07T05:07:09;14.50;99.90
31783;DHT22;18351;47.560;9.708;2023-05-07T05:09:35;14.50;99.90
31783;DHT22;18351;47.560;9.708;2023-05-07T05:12:01;14.70;99.90
31783;DHT22;18351;47.560;9.708;2023-05-07T05:14:26;14.80;99.90
31783;DHT22;18351;47.560;9.708;2023-05-07T05:16:52;15.00;99.90
31783;DHT22;18351;47.560;9.708;2023-05-07T05:19:17;15.10;99.90
31783;DHT22;18351;47.560;9.708;2023-05-07T05:21:43;15.40;99.90
31783;DHT22;18351;47.560;9.708;2023-05-07T05:24:08;15.40;99.90
31783;DHT22;18351;47.560;9.708;2023-05-07T05:26:34;15.50;99.90
31783;DHT22;18351;47.560;9.708;2023-05-07T05:29:00;15.70;99.90
31783;DHT22;18351;47.560;9.708;2023-05-07T05:31:25;15.90;99.90
31783;DHT22;18351;47.560;9.708;2023-05-07T05:33:51;16.20;99.90
31783;DHT22;18351;47.560;9.708;2023-05-07T05:36:17;16.60;99.90
31783;DHT22;18351;47.560;9.708;2023-05-07T05:38:42;17.20;99.90
31783;DHT22;18351;47.560;9.708;2023-05-07T05:41:09;18.00;99.90
31783;DHT22;18351;47.560;9.708;2023-05-07T05:43:35;18.90;99.90
31783;DHT22;18351;47.560;9.708;2023-05-07T05:46:00;19.50;99.90
31783;DHT22;18351;47.560;9.708;2023-05-07T05:48:26;20.00;99.10
31783;DHT22;18351;47.560;9.708;2023-05-07T05:50:51;20.20;97.50
31783;DHT22;18351;47.560;9.708;2023-05-07T05:53:17;20.30;95.50
31783;DHT22;18351;47.560;9.708;2023-05-07T05:55:43;20.20;95.00
31783;DHT22;18351;47.560;9.708;2023-05-07T05:58:09;19.90;95.00
31783;DHT22;18351;47.560;9.708;2023-05-07T06:00:34;19.50;95.60
31783;DHT22;18351;47.560;9.708;2023-05-07T06:03:00;19.20;96.00
31783;DHT22;18351;47.560;9.708;2023-05-07T06:05:25;18.90;96.60
31783;DHT22;18351;47.560;9.708;2023-05-07T06:07:51;18.70;97.50
31783;DHT22;18351;47.560;9.708;2023-05-07T06:10:17;18.50;98.20
31783;DHT22;18351;47.560;9.708;2023-05-07T06:12:42;18.30;98.70
31783;DHT22;18351;47.560;9.708;2023-05-07T06:15:08;18.10;99.00
31783;DHT22;18351;47.560;9.708;2023-05-07T06:17:34;18.00;99.60
31783;DHT22;18351;47.560;9.708;2023-05-07T06:19:59;17.90;99.80
31783;DHT22;18351;47.560;9.708;2023-05-07T06:22:25;17.70;99.90
31783;DHT22;18351;47.560;9.708;2023-05-07T06:24:50;17.70;99.90
31783;DHT22;18351;47.560;9.708;2023-05-07T06:27:16;17.80;99.90
31783;DHT22;18351;47.560;9.708;2023-05-07T06:29:41;18.30;99.80
31783;DHT22;18351;47.560;9.708;2023-05-07T06:32:11;19.00;98.60
31783;DHT22;18351;47.560;9.708;2023-05-07T06:34:38;19.70;96.70
31783;DHT22;18351;47.560;9.708;2023-05-07T06:37:03;20.30;94.90
31783;DHT22;18351;47.560;9.708;2023-05-07T06:39:29;20.70;93.50
31783;DHT22;18351;47.560;9.708;2023-05-07T06:41:55;20.70;92.40
31783;DHT22;18351;47.560;9.708;2023-05-07T06:44:20;20.60;92.40
31783;DHT22;18351;47.560;9.708;2023-05-07T06:46:46;20.40;92.00
31783;DHT22;18351;47.560;9.708;2023-05-07T06:49:12;20.10;92.60
31783;DHT22;18351;47.560;9.708;2023-05-07T06:51:38;19.80;92.90
31783;DHT22;18351;47.560;9.708;2023-05-07T06:54:04;19.60;92.90
31783;DHT22;18351;47.560;9.708;2023-05-07T06:56:30;19.50;94.10
31783;DHT22;18351;47.560;9.708;2023-05-07T06:58:55;19.30;94.20
31783;DHT22;18351;47.560;9.708;2023-05-07T07:01:21;19.20;94.80
31783;DHT22;18351;47.560;9.708;2023-05-07T07:03:47;19.10;95.50
31783;DHT22;18351;47.560;9.708;2023-05-07T07:06:12;19.20;95.50
31783;DHT22;18351;47.560;9.708;2023-05-07T07:08:38;19.10;95.60
31783;DHT22;18351;47.560;9.708;2023-05-07T07:11:04;19.20;95.90
31783;DHT22;18351;47.560;9.708;2023-05-07T07:13:30;19.20;95.90
31783;DHT22;18351;47.560;9.708;2023-05-07T07:15:56;19.30;96.00
31783;DHT22;18351;47.560;9.708;2023-05-07T07:18:21;19.40;96.00
31783;DHT22;18351;47.560;9.708;2023-05-07T07:20:47;19.40;95.10
31783;DHT22;18351;47.560;9.708;2023-05-07T07:23:13;19.50;95.50
31783;DHT22;18351;47.560;9.708;2023-05-07T07:25:39;19.60;96.20
31783;DHT22;18351;47.560;9.708;2023-05-07T07:28:05;19.60;95.30
31783;DHT22;18351;47.560;9.708;2023-05-07T07:30:31;19.60;95.20
31783;DHT22;18351;47.560;9.708;2023-05-07T07:32:56;19.60;96.00
31783;DHT22;18351;47.560;9.708;2023-05-07T07:35:33;19.60;96.00
31783;DHT22;18351;47.560;9.708;2023-05-07T07:37:59;19.60;94.70
31783;DHT22;18351;47.560;9.708;2023-05-07T07:40:25;19.70;94.90
31783;DHT22;18351;47.560;9.708;2023-05-07T07:42:51;19.80;95.30
31783;DHT22;18351;47.560;9.708;2023-05-07T07:45:17;19.80;94.90
31783;DHT22;18351;47.560;9.708;2023-05-07T07:47:42;19.90;94.40
31783;DHT22;18351;47.560;9.708;2023-05-07T07:50:08;20.10;94.70
31783;DHT22;18351;47.560;9.708;2023-05-07T07:52:34;20.30;94.90
31783;DHT22;18351;47.560;9.708;2023-05-07T07:55:00;20.50;93.40
31783;DHT22;18351;47.560;9.708;2023-05-07T07:57:26;20.50;92.30
31783;DHT22;18351;47.560;9.708;2023-05-07T07:59:51;20.50;92.80
31783;DHT22;18351;47.560;9.708;2023-05-07T08:02:17;20.50;92.90
31783;DHT22;18351;47.560;9.708;2023-05-07T08:04:43;20.40;92.30
31783;DHT22;18351;47.560;9.708;2023-05-07T08:07:10;20.40;92.70
31783;DHT22;18351;47.560;9.708;2023-05-07T08:09:39;20.40;93.00
31783;DHT22;18351;47.560;9.708;2023-05-07T08:12:07;20.50;93.20
31783;DHT22;18351;47.560;9.708;2023-05-07T08:14:34;20.40;92.00
31783;DHT22;18351;47.560;9.708;2023-05-07T08:16:59;20.40;92.50
31783;DHT22;18351;47.560;9.708;2023-05-07T08:19:25;20.40;92.90
31783;DHT22;18351;47.560;9.708;2023-05-07T08:21:51;20.50;93.30
31783;DHT22;18351;47.560;9.708;2023-05-07T08:24:17;20.60;92.80
31783;DHT22;18351;47.560;9.708;2023-05-07T08:26:43;20.50;92.50
31783;DHT22;18351;47.560;9.708;2023-05-07T08:29:09;20.50;92.30
31783;DHT22;18351;47.560;9.708;2023-05-07T08:31:35;20.50;92.30
31783;DHT22;18351;47.560;9.708;2023-05-07T08:34:01;20.40;92.10
31783;DHT22;18351;47.560;9.708;2023-05-07T08:36:26;20.40;92.70
31783;DHT22;18351;47.560;9.708;2023-05-07T08:38:52;20.50;92.40
31783;DHT22;18351;47.560;9.708;2023-05-07T08:41:18;20.50;91.40
31783;DHT22;18351;47.560;9.708;2023-05-07T08:43:47;20.60;92.70
31783;DHT22;18351;47.560;9.708;2023-05-07T08:46:18;20.30;91.70
31783;DHT22;18351;47.560;9.708;2023-05-07T08:48:44;20.40;92.30
31783;DHT22;18351;47.560;9.708;2023-05-07T08:51:15;20.60;91.90
31783;DHT22;18351;47.560;9.708;2023-05-07T08:53:41;20.70;91.20
31783;DHT22;18351;47.560;9.708;2023-05-07T08:56:08;21.00;91.80
31783;DHT22;18351;47.560;9.708;2023-05-07T08:58:35;21.10;91.10
31783;DHT22;18351;47.560;9.708;2023-05-07T09:01:05;21.20;90.20
31783;DHT22;18351;47.560;9.708;2023-05-07T09:03:32;21.30;90.10
31783;DHT22;18351;47.560;9.708;2023-05-07T09:05:57;21.50;88.50
31783;DHT22;18351;47.560;9.708;2023-05-07T09:08:27;21.80;87.30
31783;DHT22;18351;47.560;9.708;2023-05-07T09:10:53;21.80;87.00
31783;DHT22;18351;47.560;9.708;2023-05-07T09:13:19;22.00;87.20
31783;DHT22;18351;47.560;9.708;2023-05-07T09:15:45;22.00;84.50
31783;DHT22;18351;47.560;9.708;2023-05-07T09:18:10;22.00;87.10
31783;DHT22;18351;47.560;9.708;2023-05-07T09:20:39;22.00;83.50
31783;DHT22;18351;47.560;9.708;2023-05-07T09:23:06;22.00;84.90
31783;DHT22;18351;47.560;9.708;2023-05-07T09:25:34;22.10;85.10
31783;DHT22;18351;47.560;9.708;2023-05-07T09:28:01;22.20;82.90
31783;DHT22;18351;47.560;9.708;2023-05-07T09:30:31;22.10;83.30
31783;DHT22;18351;47.560;9.708;2023-05-07T09:32:59;21.80;82.90
31783;DHT22;18351;47.560;9.708;2023-05-07T09:35:25;21.40;85.70
31783;DHT22;18351;47.560;9.708;2023-05-07T09:37:53;21.60;85.50
31783;DHT22;18351;47.560;9.708;2023-05-07T09:40:24;21.80;84.60
31783;DHT22;18351;47.560;9.708;2023-05-07T09:42:50;21.90;84.00
31783;DHT22;18351;47.560;9.708;2023-05-07T09:45:27;22.20;84.10
31783;DHT22;18351;47.560;9.708;2023-05-07T09:47:55;22.40;84.70
31783;DHT22;18351;47.560;9.708;2023-05-07T09:50:30;22.50;81.90
31783;DHT22;18351;47.560;9.708;2023-05-07T09:52:57;22.70;83.90
31783;DHT22;18351;47.560;9.708;2023-05-07T09:55:23;22.80;83.80
31783;DHT22;18351;47.560;9.708;2023-05-07T09:57:51;22.80;82.30
31783;DHT22;18351;47.560;9.708;2023-05-07T10:00:19;22.90;83.70
31783;DHT22;18351;47.560;9.708;2023-05-07T10:02:50;23.00;83.00
31783;DHT22;18351;47.560;9.708;2023-05-07T10:05:18;23.10;82.10
31783;DHT22;18351;47.560;9.708;2023-05-07T10:07:45;23.10;79.40
31783;DHT22;18351;47.560;9.708;2023-05-07T10:10:12;23.00;80.60
31783;DHT22;18351;47.560;9.708;2023-05-07T10:12:38;23.10;80.80
31783;DHT22;18351;47.560;9.708;2023-05-07T10:15:07;23.20;79.80
31783;DHT22;18351;47.560;9.708;2023-05-07T10:17:35;23.30;79.30
31783;DHT22;18351;47.560;9.708;2023-05-07T10:20:01;23.40;80.10
31783;DHT22;18351;47.560;9.708;2023-05-07T10:22:27;23.50;80.50
31783;DHT22;18351;47.560;9.708;2023-05-07T10:24:53;23.60;78.30
31783;DHT22;18351;47.560;9.708;2023-05-07T10:27:22;23.70;79.30
31783;DHT22;18351;47.560;9.708;2023-05-07T10:30:07;23.80;75.80
31783;DHT22;18351;47.560;9.708;2023-05-07T10:32:46;23.70;77.50
31783;DHT22;18351;47.560;9.708;2023-05-07T10:35:36;23.80;76.20
31783;DHT22;18351;47.560;9.708;2023-05-07T10:38:03;23.90;74.20
31783;DHT22;18351;47.560;9.708;2023-05-07T10:40:31;24.10;75.60
31783;DHT22;18351;47.560;9.708;2023-05-07T10:43:01;24.10;74.40
31783;DHT22;18351;47.560;9.708;2023-05-07T10:45:27;24.20;71.20
31783;DHT22;18351;47.560;9.708;2023-05-07T10:50:38;24.60;70.20
31783;DHT22;18351;47.560;9.708;2023-05-07T10:55:46;24.90;69.90
31783;DHT22;18351;47.560;9.708;2023-05-07T11:00:47;25.00;68.80
31783;DHT22;18351;47.560;9.708;2023-05-07T11:03:13;25.00;67.60
31783;DHT22;18351;47.560;9.708;2023-05-07T11:05:40;25.00;68.00
31783;DHT22;18351;47.560;9.708;2023-05-07T11:08:06;25.30;67.40
31783;DHT22;18351;47.560;9.708;2023-05-07T11:13:17;25.70;66.90
31783;DHT22;18351;47.560;9.708;2023-05-07T11:15:45;25.30;64.10
31783;DHT22;18351;47.560;9.708;2023-05-07T11:18:12;25.20;65.80
31783;DHT22;18351;47.560;9.708;2023-05-07T11:20:52;25.20;65.50
31783;DHT22;18351;47.560;9.708;2023-05-07T11:26:03;25.30;66.50
31783;DHT22;18351;47.560;9.708;2023-05-07T11:28:38;25.30;65.00
31783;DHT22;18351;47.560;9.708;2023-05-07T11:31:04;25.40;65.70
31783;DHT22;18351;47.560;9.708;2023-05-07T11:33:30;25.70;64.70
31783;DHT22;18351;47.560;9.708;2023-05-07T11:35:56;25.60;61.90
31783;DHT22;18351;47.560;9.708;2023-05-07T11:38:23;25.10;63.70
31783;DHT22;18351;47.560;9.708;2023-05-07T11:41:07;24.70;64.00
31783;DHT22;18351;47.560;9.708;2023-05-07T11:43:33;24.90;68.20
31783;DHT22;18351;47.560;9.708;2023-05-07T11:46:09;25.20;65.90
31783;DHT22;18351;47.560;9.708;2023-05-07T11:48:35;25.40;64.60
31783;DHT22;18351;47.560;9.708;2023-05-07T11:51:03;25.60;64.80
31783;DHT22;18351;47.560;9.708;2023-05-07T11:53:36;25.80;65.10
31783;DHT22;18351;47.560;9.708;2023-05-07T11:56:16;25.80;63.30
31783;DHT22;18351;47.560;9.708;2023-05-07T11:58:43;25.60;61.80
31783;DHT22;18351;47.560;9.708;2023-05-07T12:01:10;25.40;62.60
31783;DHT22;18351;47.560;9.708;2023-05-07T12:03:36;25.70;64.00
31783;DHT22;18351;47.560;9.708;2023-05-07T12:06:05;26.00;62.90
31783;DHT22;18351;47.560;9.708;2023-05-07T12:08:30;25.90;62.10
31783;DHT22;18351;47.560;9.708;2023-05-07T12:10:56;25.50;61.00
31783;DHT22;18351;47.560;9.708;2023-05-07T12:13:24;25.40;62.70
31783;DHT22;18351;47.560;9.708;2023-05-07T12:15:53;25.60;66.20
31783;DHT22;18351;47.560;9.708;2023-05-07T12:18:19;25.50;62.00
31783;DHT22;18351;47.560;9.708;2023-05-07T12:20:45;25.50;64.40
31783;DHT22;18351;47.560;9.708;2023-05-07T12:23:12;25.80;65.60
31783;DHT22;18351;47.560;9.708;2023-05-07T12:25:38;26.10;64.10
31783;DHT22;18351;47.560;9.708;2023-05-07T12:28:08;26.30;63.80
31783;DHT22;18351;47.560;9.708;2023-05-07T12:30:38;26.50;62.30
31783;DHT22;18351;47.560;9.708;2023-05-07T12:33:04;26.70;62.60
31783;DHT22;18351;47.560;9.708;2023-05-07T12:35:31;26.80;62.90
31783;DHT22;18351;47.560;9.708;2023-05-07T12:37:59;26.90;61.70
31783;DHT22;18351;47.560;9.708;2023-05-07T12:40:38;27.00;61.80
31783;DHT22;18351;47.560;9.708;2023-05-07T12:43:04;27.00;62.20
31783;DHT22;18351;47.560;9.708;2023-05-07T12:45:30;26.80;64.40
31783;DHT22;18351;47.560;9.708;2023-05-07T12:48:01;26.80;62.00
31783;DHT22;18351;47.560;9.708;2023-05-07T12:50:31;26.90;62.20
31783;DHT22;18351;47.560;9.708;2023-05-07T12:52:56;26.80;61.70
31783;DHT22;18351;47.560;9.708;2023-05-07T12:55:22;26.80;63.50
31783;DHT22;18351;47.560;9.708;2023-05-07T12:57:49;27.00;64.00
31783;DHT22;18351;47.560;9.708;2023-05-07T13:00:16;27.10;61.70
31783;DHT22;18351;47.560;9.708;2023-05-07T13:02:43;27.10;60.40
31783;DHT22;18351;47.560;9.708;2023-05-07T13:05:11;27.00;61.80
31783;DHT22;18351;47.560;9.708;2023-05-07T13:07:37;27.00;61.00
31783;DHT22;18351;47.560;9.708;2023-05-07T13:10:03;27.00;61.20
31783;DHT22;18351;47.560;9.708;2023-05-07T13:12:29;26.90;62.60
31783;DHT22;18351;47.560;9.708;2023-05-07T13:14:55;27.00;62.10
31783;DHT22;18351;47.560;9.708;2023-05-07T13:17:20;27.00;64.50
31783;DHT22;18351;47.560;9.708;2023-05-07T13:19:46;26.90;64.40
31783;DHT22;18351;47.560;9.708;2023-05-07T13:22:11;26.70;62.50
31783;DHT22;18351;47.560;9.708;2023-05-07T13:24:37;26.50;61.20
31783;DHT22;18351;47.560;9.708;2023-05-07T13:27:02;26.20;62.20
31783;DHT22;18351;47.560;9.708;2023-05-07T13:29:28;26.10;62.10
31783;DHT22;18351;47.560;9.708;2023-05-07T13:31:56;26.00;64.80
31783;DHT22;18351;47.560;9.708;2023-05-07T13:34:22;26.00;66.00
31783;DHT22;18351;47.560;9.708;2023-05-07T13:36:47;26.10;65.30
31783;DHT22;18351;47.560;9.708;2023-05-07T13:39:13;26.30;64.70
31783;DHT22;18351;47.560;9.708;2023-05-07T13:41:39;26.30;62.80
31783;DHT22;18351;47.560;9.708;2023-05-07T13:44:04;26.20;63.40
31783;DHT22;18351;47.560;9.708;2023-05-07T13:46:30;26.10;63.60
31783;DHT22;18351;47.560;9.708;2023-05-07T13:48:56;26.10;65.10
31783;DHT22;18351;47.560;9.708;2023-05-07T13:51:22;26.20;61.20
31783;DHT22;18351;47.560;9.708;2023-05-07T13:53:47;26.10;62.30
31783;DHT22;18351;47.560;9.708;2023-05-07T13:56:13;26.20;62.50
31783;DHT22;18351;47.560;9.708;2023-05-07T13:58:40;26.20;59.30
31783;DHT22;18351;47.560;9.708;2023-05-07T14:01:05;26.20;60.70
31783;DHT22;18351;47.560;9.708;2023-05-07T14:03:31;26.10;62.20
31783;DHT22;18351;47.560;9.708;2023-05-07T14:05:58;25.80;63.30
31783;DHT22;18351;47.560;9.708;2023-05-07T14:08:25;25.60;63.10
31783;DHT22;18351;47.560;9.708;2023-05-07T14:10:51;25.40;63.60
31783;DHT22;18351;47.560;9.708;2023-05-07T14:13:17;25.20;64.50
31783;DHT22;18351;47.560;9.708;2023-05-07T14:15:43;24.80;65.80
31783;DHT22;18351;47.560;9.708;2023-05-07T14:18:14;24.50;65.30
31783;DHT22;18351;47.560;9.708;2023-05-07T14:20:40;24.20;67.40
31783;DHT22;18351;47.560;9.708;2023-05-07T14:23:08;24.00;68.90
31783;DHT22;18351;47.560;9.708;2023-05-07T14:25:34;23.80;69.30
31783;DHT22;18351;47.560;9.708;2023-05-07T14:27:59;23.70;69.10
31783;DHT22;18351;47.560;9.708;2023-05-07T14:30:25;23.70;70.70
31783;DHT22;18351;47.560;9.708;2023-05-07T14:32:51;23.60;70.20
31783;DHT22;18351;47.560;9.708;2023-05-07T14:35:16;23.40;71.10
31783;DHT22;18351;47.560;9.708;2023-05-07T14:37:43;23.50;73.70
31783;DHT22;18351;47.560;9.708;2023-05-07T14:40:09;23.70;72.40
31783;DHT22;18351;47.560;9.708;2023-05-07T14:42:34;23.70;72.10
31783;DHT22;18351;47.560;9.708;2023-05-07T14:45:00;23.70;71.20
31783;DHT22;18351;47.560;9.708;2023-05-07T14:47:25;23.70;72.40
31783;DHT22;18351;47.560;9.708;2023-05-07T14:49:51;23.70;71.90
31783;DHT22;18351;47.560;9.708;2023-05-07T14:52:16;23.60;73.30
31783;DHT22;18351;47.560;9.708;2023-05-07T14:54:42;23.70;73.30
31783;DHT22;18351;47.560;9.708;2023-05-07T14:57:09;23.70;72.30
31783;DHT22;18351;47.560;9.708;2023-05-07T14:59:35;23.60;74.40
31783;DHT22;18351;47.560;9.708;2023-05-07T15:02:02;23.50;73.00
31783;DHT22;18351;47.560;9.708;2023-05-07T15:04:28;23.30;72.90
31783;DHT22;18351;47.560;9.708;2023-05-07T15:06:53;23.20;74.40
31783;DHT22;18351;47.560;9.708;2023-05-07T15:09:19;23.20;75.30
31783;DHT22;18351;47.560;9.708;2023-05-07T15:11:45;23.20;74.90
31783;DHT22;18351;47.560;9.708;2023-05-07T15:14:10;23.10;75.40
31783;DHT22;18351;47.560;9.708;2023-05-07T15:16:36;23.00;76.90
31783;DHT22;18351;47.560;9.708;2023-05-07T15:19:02;22.90;76.50
31783;DHT22;18351;47.560;9.708;2023-05-07T15:21:27;22.90;76.40
31783;DHT22;18351;47.560;9.708;2023-05-07T15:23:53;22.80;76.70
31783;DHT22;18351;47.560;9.708;2023-05-07T15:26:18;22.80;77.00
31783;DHT22;18351;47.560;9.708;2023-05-07T15:28:44;22.80;78.10
31783;DHT22;18351;47.560;9.708;2023-05-07T15:31:09;22.70;78.70
31783;DHT22;18351;47.560;9.708;2023-05-07T15:33:35;22.60;79.80
31783;DHT22;18351;47.560;9.708;2023-05-07T15:36:01;22.50;83.30
31783;DHT22;18351;47.560;9.708;2023-05-07T15:38:28;21.90;85.80